sensor_id;sensor_type;location;lat;lon;timestamp;noise_LAeq;noise_LA_min;noise_LA_max;noise_LA01;noise_LA95
75467;Laerm;64050;50.634;3.062;2023-06-26T00:01:59;47.95;44.53;50.63;;
75467;Laerm;64050;50.634;3.062;2023-06-26T00:04:24;47.94;44.82;51.18;;
75467;Laerm;64050;50.634;3.062;2023-06-26T00:06:50;47.76;44.52;50.33;;
75467;Laerm;64050;50.634;3.062;2023-06-26T00:09:15;47.78;44.37;51.05;;
75467;Laerm;64050;50.634;3.062;2023-06-26T00:11:40;47.66;44.61;50.49;;
75467;Laerm;64050;50.634;3.062;2023-06-26T00:14:05;47.58;44.49;50.56;;
75467;Laerm;64050;50.634;3.062;2023-06-26T00:16:31;47.42;44.16;50.13;;
75467;Laerm;64050;50.634;3.062;2023-06-26T00:18:56;47.55;44.37;50.44;;
75467;Laerm;64050;50.634;3.062;2023-06-26T00:21:22;47.45;44.00;50.78;;
75467;Laerm;64050;50.634;3.062;2023-06-26T00:23:47;47.28;44.27;50.07;;
75467;Laerm;64050;50.634;3.062;2023-06-26T00:26:12;47.39;44.49;50.78;;
75467;Laerm;64050;50.634;3.062;2023-06-26T00:28:38;47.27;44.44;52.38;;
75467;Laerm;64050;50.634;3.062;2023-06-26T00:31:03;47.56;44.30;56.48;;
75467;Laerm;64050;50.634;3.062;2023-06-26T00:33:28;47.72;44.01;59.76;;
75467;Laerm;64050;50.634;3.062;2023-06-26T00:35:53;47.16;43.73;49.94;;
75467;Laerm;64050;50.634;3.062;2023-06-26T00:38:19;47.31;44.70;50.45;;
75467;Laerm;64050;50.634;3.062;2023-06-26T00:40:44;47.32;44.65;50.02;;
75467;Laerm;64050;50.634;3.062;2023-06-26T00:43:09;47.43;44.53;50.46;;
75467;Laerm;64050;50.634;3.062;2023-06-26T00:45:34;47.47;44.62;51.06;;
75467;Laerm;64050;50.634;3.062;2023-06-26T00:48:00;47.34;44.17;50.43;;
75467;Laerm;64050;50.634;3.062;2023-06-26T00:50:26;47.36;43.99;50.36;;
75467;Laerm;64050;50.634;3.062;2023-06-26T00:52:52;47.37;44.34;50.41;;
75467;Laerm;64050;50.634;3.062;2023-06-26T00:55:19;47.35;44.11;50.18;;
75467;Laerm;64050;50.634;3.062;2023-06-26T00:57:45;47.12;43.86;52.17;;
75467;Laerm;64050;50.634;3.062;2023-06-26T01:00:11;47.21;44.01;50.67;;
75467;Laerm;64050;50.634;3.062;2023-06-26T01:02:36;47.37;44.88;50.47;;
75467;Laerm;64050;50.634;3.062;2023-06-26T01:05:03;47.61;44.70;50.65;;
75467;Laerm;64050;50.634;3.062;2023-06-26T01:07:31;47.36;44.39;50.44;;
75467;Laerm;64050;50.634;3.062;2023-06-26T01:10:01;47.32;44.11;50.41;;
75467;Laerm;64050;50.634;3.062;2023-06-26T01:12:26;47.43;44.08;51.20;;
75467;Laerm;64050;50.634;3.062;2023-06-26T01:14:52;47.29;44.19;52.49;;
75467;Laerm;64050;50.634;3.062;2023-06-26T01:17:17;47.20;44.15;50.03;;
75467;Laerm;64050;50.634;3.062;2023-06-26T01:19:42;47.27;44.04;51.85;;
75467;Laerm;64050;50.634;3.062;2023-06-26T01:24:39;47.39;44.45;50.75;;
75467;Laerm;64050;50.634;3.062;2023-06-26T01:27:07;47.16;44.35;49.88;;
75467;Laerm;64050;50.634;3.062;2023-06-26T01:29:32;47.18;43.86;50.16;;
75467;Laerm;64050;50.634;3.062;2023-06-26T01:31:58;47.24;44.29;50.47;;
75467;Laerm;64050;50.634;3.062;2023-06-26T01:34:24;47.19;44.12;50.13;;
75467;Laerm;64050;50.634;3.062;2023-06-26T01:36:49;47.20;44.32;50.10;;
75467;Laerm;64050;50.634;3.062;2023-06-26T01:39:15;47.39;44.37;49.98;;
75467;Laerm;64050;50.634;3.062;2023-06-26T01:41:41;47.67;44.49;54.51;;
75467;Laerm;64050;50.634;3.062;2023-06-26T01:49:04;47.39;44.14;50.71;;
75467;Laerm;64050;50.634;3.062;2023-06-26T01:51:32;47.20;43.84;50.70;;
75467;Laerm;64050;50.634;3.062;2023-06-26T01:54:00;47.13;44.06;50.07;;
75467;Laerm;64050;50.634;3.062;2023-06-26T01:56:26;47.11;44.56;50.19;;
75467;Laerm;64050;50.634;3.062;2023-06-26T01:58:53;47.17;44.23;50.03;;
75467;Laerm;64050;50.634;3.062;2023-06-26T02:01:20;47.08;44.19;49.84;;
75467;Laerm;64050;50.634;3.062;2023-06-26T02:03:45;47.11;44.33;50.39;;
75467;Laerm;64050;50.634;3.062;2023-06-26T02:06:10;47.14;44.20;50.04;;
75467;Laerm;64050;50.634;3.062;2023-06-26T02:08:36;47.07;44.16;58.59;;
75467;Laerm;64050;50.634;3.062;2023-06-26T02:11:01;47.14;43.65;50.44;;
75467;Laerm;64050;50.634;3.062;2023-06-26T02:13:26;47.02;43.94;50.47;;
75467;Laerm;64050;50.634;3.062;2023-06-26T02:15:51;47.19;44.18;50.67;;
75467;Laerm;64050;50.634;3.062;2023-06-26T02:18:17;47.11;44.18;50.30;;
75467;Laerm;64050;50.634;3.062;2023-06-26T02:20:42;47.09;43.77;53.27;;
75467;Laerm;64050;50.634;3.062;2023-06-26T02:23:09;47.11;44.07;50.63;;
75467;Laerm;64050;50.634;3.062;2023-06-26T02:25:34;47.16;43.72;50.49;;
75467;Laerm;64050;50.634;3.062;2023-06-26T02:27:59;47.12;44.14;50.49;;
75467;Laerm;64050;50.634;3.062;2023-06-26T02:30:25;47.02;43.95;50.46;;
75467;Laerm;64050;50.634;3.062;2023-06-26T02:32:50;47.05;43.69;49.82;;
75467;Laerm;64050;50.634;3.062;2023-06-26T02:35:15;46.92;43.75;50.38;;
75467;Laerm;64050;50.634;3.062;2023-06-26T02:37:40;47.16;43.75;59.46;;
75467;Laerm;64050;50.634;3.062;2023-06-26T02:40:06;47.22;44.57;50.55;;
75467;Laerm;64050;50.634;3.062;2023-06-26T02:42:32;47.28;44.29;51.29;;
75467;Laerm;64050;50.634;3.062;2023-06-26T02:44:58;47.18;44.28;50.74;;
75467;Laerm;64050;50.634;3.062;2023-06-26T02:47:23;47.18;44.31;51.45;;
75467;Laerm;64050;50.634;3.062;2023-06-26T02:49:48;47.27;44.27;57.62;;
75467;Laerm;64050;50.634;3.062;2023-06-26T02:52:13;47.50;44.69;55.81;;
75467;Laerm;64050;50.634;3.062;2023-06-26T02:54:39;47.41;43.45;58.78;;
75467;Laerm;64050;50.634;3.062;2023-06-26T02:57:04;47.16;43.96;51.63;;
75467;Laerm;64050;50.634;3.062;2023-06-26T02:59:29;47.03;44.01;50.51;;
75467;Laerm;64050;50.634;3.062;2023-06-26T03:01:54;47.25;44.45;50.67;;
75467;Laerm;64050;50.634;3.062;2023-06-26T03:04:20;47.51;43.55;59.35;;
75467;Laerm;64050;50.634;3.062;2023-06-26T03:06:46;47.08;43.58;50.35;;
75467;Laerm;64050;50.634;3.062;2023-06-26T03:09:11;47.05;43.96;50.33;;
75467;Laerm;64050;50.634;3.062;2023-06-26T03:11:37;47.13;43.65;57.13;;
75467;Laerm;64050;50.634;3.062;2023-06-26T03:14:02;47.11;44.15;50.02;;
75467;Laerm;64050;50.634;3.062;2023-06-26T03:16:27;47.22;44.36;50.28;;
75467;Laerm;64050;50.634;3.062;2023-06-26T03:18:52;47.47;43.70;62.36;;
75467;Laerm;64050;50.634;3.062;2023-06-26T03:21:17;47.28;43.88;52.67;;
75467;Laerm;64050;50.634;3.062;2023-06-26T03:23:43;47.30;43.42;51.51;;
75467;Laerm;64050;50.634;3.062;2023-06-26T03:26:08;48.85;44.22;62.07;;
75467;Laerm;64050;50.634;3.062;2023-06-26T03:28:33;47.47;44.40;61.70;;
75467;Laerm;64050;50.634;3.062;2023-06-26T03:30:59;47.12;43.89;50.36;;
75467;Laerm;64050;50.634;3.062;2023-06-26T03:33:24;46.90;43.93;58.44;;
75467;Laerm;64050;50.634;3.062;2023-06-26T03:35:49;47.08;44.09;50.07;;
75467;Laerm;64050;50.634;3.062;2023-06-26T03:38:14;47.59;44.31;62.49;;
75467;Laerm;64050;50.634;3.062;2023-06-26T03:40:39;47.61;44.12;63.93;;
75467;Laerm;64050;50.634;3.062;2023-06-26T03:43:05;47.28;44.27;52.16;;
75467;Laerm;64050;50.634;3.062;2023-06-26T03:45:30;46.99;43.80;49.97;;
75467;Laerm;64050;50.634;3.062;2023-06-26T03:47:55;46.95;43.36;50.52;;
75467;Laerm;64050;50.634;3.062;2023-06-26T03:50:20;47.25;44.18;54.34;;
75467;Laerm;64050;50.634;3.062;2023-06-26T03:52:46;46.97;44.28;50.00;;
75467;Laerm;64050;50.634;3.062;2023-06-26T03:55:11;47.06;43.94;55.30;;
75467;Laerm;64050;50.634;3.062;2023-06-26T03:57:36;47.34;44.28;51.35;;
75467;Laerm;64050;50.634;3.062;2023-06-26T04:00:02;47.10;43.73;49.74;;
75467;Laerm;64050;50.634;3.062;2023-06-26T04:02:33;47.31;44.06;55.55;;
75467;Laerm;64050;50.634;3.062;2023-06-26T04:04:58;47.66;43.51;58.74;;
75467;Laerm;64050;50.634;3.062;2023-06-26T04:07:23;47.32;44.12;62.19;;
75467;Laerm;64050;50.634;3.062;2023-06-26T04:09:49;47.86;44.65;55.31;;
75467;Laerm;64050;50.634;3.062;2023-06-26T04:12:15;47.93;44.41;53.73;;
75467;Laerm;64050;50.634;3.062;2023-06-26T04:14:40;47.55;43.81;53.63;;
75467;Laerm;64050;50.634;3.062;2023-06-26T04:17:05;47.42;44.59;52.17;;
75467;Laerm;64050;50.634;3.062;2023-06-26T04:19:30;47.70;44.10;62.42;;
75467;Laerm;64050;50.634;3.062;2023-06-26T04:21:56;47.82;44.56;53.36;;
75467;Laerm;64050;50.634;3.062;2023-06-26T04:24:21;47.98;44.59;64.26;;
75467;Laerm;64050;50.634;3.062;2023-06-26T04:26:46;48.99;44.92;57.83;;
75467;Laerm;64050;50.634;3.062;2023-06-26T04:29:12;48.42;45.09;52.09;;
75467;Laerm;64050;50.634;3.062;2023-06-26T04:31:38;47.91;44.92;53.34;;
75467;Laerm;64050;50.634;3.062;2023-06-26T04:34:04;48.41;44.82;56.90;;
75467;Laerm;64050;50.634;3.062;2023-06-26T04:36:29;50.81;45.58;75.28;;
75467;Laerm;64050;50.634;3.062;2023-06-26T04:38:54;49.10;45.57;57.48;;
75467;Laerm;64050;50.634;3.062;2023-06-26T04:41:20;49.35;45.51;55.64;;
75467;Laerm;64050;50.634;3.062;2023-06-26T04:43:45;47.96;45.00;58.44;;
75467;Laerm;64050;50.634;3.062;2023-06-26T04:46:11;49.02;45.26;57.54;;
75467;Laerm;64050;50.634;3.062;2023-06-26T04:48:36;53.76;46.50;61.80;;
75467;Laerm;64050;50.634;3.062;2023-06-26T04:51:02;51.50;46.45;56.34;;
75467;Laerm;64050;50.634;3.062;2023-06-26T04:53:27;48.21;44.86;54.50;;
75467;Laerm;64050;50.634;3.062;2023-06-26T04:55:52;49.28;45.27;56.35;;
75467;Laerm;64050;50.634;3.062;2023-06-26T04:58:18;48.26;44.59;56.93;;
75467;Laerm;64050;50.634;3.062;2023-06-26T05:00:43;48.34;44.89;55.21;;
75467;Laerm;64050;50.634;3.062;2023-06-26T05:03:12;49.16;45.30;64.42;;
75467;Laerm;64050;50.634;3.062;2023-06-26T05:05:37;48.24;44.69;60.03;;
75467;Laerm;64050;50.634;3.062;2023-06-26T05:10:43;47.99;44.58;63.71;;
75467;Laerm;64050;50.634;3.062;2023-06-26T05:13:09;48.53;44.82;60.54;;
75467;Laerm;64050;50.634;3.062;2023-06-26T05:15:34;48.59;45.22;52.95;;
75467;Laerm;64050;50.634;3.062;2023-06-26T05:17:59;49.63;45.08;64.47;;
75467;Laerm;64050;50.634;3.062;2023-06-26T05:20:24;50.80;46.11;65.34;;
75467;Laerm;64050;50.634;3.062;2023-06-26T05:22:50;48.60;44.79;62.67;;
75467;Laerm;64050;50.634;3.062;2023-06-26T05:25:15;49.10;44.80;57.91;;
75467;Laerm;64050;50.634;3.062;2023-06-26T05:27:41;48.11;44.78;52.42;;
75467;Laerm;64050;50.634;3.062;2023-06-26T05:30:06;48.60;45.10;54.28;;
75467;Laerm;64050;50.634;3.062;2023-06-26T05:32:32;48.27;44.49;59.29;;
75467;Laerm;64050;50.634;3.062;2023-06-26T05:34:59;48.53;44.52;66.55;;
75467;Laerm;64050;50.634;3.062;2023-06-26T05:37:26;52.16;45.30;74.35;;
75467;Laerm;64050;50.634;3.062;2023-06-26T05:39:53;50.80;47.34;63.49;;
75467;Laerm;64050;50.634;3.062;2023-06-26T05:42:18;51.36;47.86;72.01;;
75467;Laerm;64050;50.634;3.062;2023-06-26T05:44:43;51.48;48.13;70.77;;
75467;Laerm;64050;50.634;3.062;2023-06-26T05:47:09;51.58;47.88;69.10;;
75467;Laerm;64050;50.634;3.062;2023-06-26T05:49:34;49.42;45.60;56.22;;
75467;Laerm;64050;50.634;3.062;2023-06-26T05:51:59;48.30;45.19;56.90;;
75467;Laerm;64050;50.634;3.062;2023-06-26T05:54:25;48.58;45.08;54.76;;
75467;Laerm;64050;50.634;3.062;2023-06-26T05:56:51;48.95;45.36;54.61;;
75467;Laerm;64050;50.634;3.062;2023-06-26T05:59:18;48.67;45.32;60.86;;
75467;Laerm;64050;50.634;3.062;2023-06-26T06:01:44;48.89;45.73;54.78;;
75467;Laerm;64050;50.634;3.062;2023-06-26T06:04:09;48.70;45.22;60.20;;
75467;Laerm;64050;50.634;3.062;2023-06-26T06:06:34;49.21;45.09;57.55;;
75467;Laerm;64050;50.634;3.062;2023-06-26T06:08:59;48.28;44.73;57.02;;
75467;Laerm;64050;50.634;3.062;2023-06-26T06:11:25;48.21;45.29;54.55;;
75467;Laerm;64050;50.634;3.062;2023-06-26T06:13:50;48.89;45.69;64.07;;
75467;Laerm;64050;50.634;3.062;2023-06-26T06:16:15;49.79;46.09;63.91;;
75467;Laerm;64050;50.634;3.062;2023-06-26T06:18:40;51.16;45.02;67.62;;
75467;Laerm;64050;50.634;3.062;2023-06-26T06:21:05;50.41;44.67;66.21;;
75467;Laerm;64050;50.634;3.062;2023-06-26T06:23:31;50.08;45.46;59.17;;
75467;Laerm;64050;50.634;3.062;2023-06-26T06:25:56;49.71;44.66;56.85;;
75467;Laerm;64050;50.634;3.062;2023-06-26T06:28:21;49.77;44.81;56.36;;
75467;Laerm;64050;50.634;3.062;2023-06-26T06:30:46;50.17;43.71;70.85;;
75467;Laerm;64050;50.634;3.062;2023-06-26T06:33:13;49.85;44.18;56.41;;
75467;Laerm;64050;50.634;3.062;2023-06-26T06:35:38;50.30;45.11;58.34;;
75467;Laerm;64050;50.634;3.062;2023-06-26T06:38:03;50.35;45.71;62.53;;
75467;Laerm;64050;50.634;3.062;2023-06-26T06:40:28;49.96;45.79;58.54;;
75467;Laerm;64050;50.634;3.062;2023-06-26T06:42:54;50.41;45.48;64.07;;
75467;Laerm;64050;50.634;3.062;2023-06-26T06:45:19;51.46;45.54;69.41;;
75467;Laerm;64050;50.634;3.062;2023-06-26T06:47:44;51.45;44.76;65.94;;
75467;Laerm;64050;50.634;3.062;2023-06-26T06:50:09;51.85;45.92;65.80;;
75467;Laerm;64050;50.634;3.062;2023-06-26T06:52:38;49.93;45.22;61.12;;
75467;Laerm;64050;50.634;3.062;2023-06-26T06:55:05;50.34;45.97;62.10;;
75467;Laerm;64050;50.634;3.062;2023-06-26T06:57:32;51.36;46.73;61.48;;
75467;Laerm;64050;50.634;3.062;2023-06-26T07:00:00;51.38;47.15;58.97;;
75467;Laerm;64050;50.634;3.062;2023-06-26T07:02:26;51.39;47.17;65.63;;
75467;Laerm;64050;50.634;3.062;2023-06-26T07:04:51;51.38;47.31;64.53;;
75467;Laerm;64050;50.634;3.062;2023-06-26T07:07:18;53.05;46.72;67.65;;
75467;Laerm;64050;50.634;3.062;2023-06-26T07:09:43;53.83;47.42;76.39;;
75467;Laerm;64050;50.634;3.062;2023-06-26T07:12:09;54.84;47.40;80.12;;
75467;Laerm;64050;50.634;3.062;2023-06-26T07:14:34;55.75;46.15;76.27;;
75467;Laerm;64050;50.634;3.062;2023-06-26T07:16:59;55.55;45.90;73.33;;
75467;Laerm;64050;50.634;3.062;2023-06-26T07:19:24;50.66;46.18;62.56;;
75467;Laerm;64050;50.634;3.062;2023-06-26T07:21:50;51.12;46.29;58.78;;
75467;Laerm;64050;50.634;3.062;2023-06-26T07:24:15;50.60;46.21;58.35;;
75467;Laerm;64050;50.634;3.062;2023-06-26T07:26:40;58.06;46.69;82.50;;
75467;Laerm;64050;50.634;3.062;2023-06-26T07:29:05;52.11;46.81;66.80;;
75467;Laerm;64050;50.634;3.062;2023-06-26T07:31:30;53.05;47.52;69.40;;
75467;Laerm;64050;50.634;3.062;2023-06-26T07:33:56;51.19;46.81;60.55;;
75467;Laerm;64050;50.634;3.062;2023-06-26T07:36:21;52.57;46.80;69.35;;
75467;Laerm;64050;50.634;3.062;2023-06-26T07:38:46;53.41;47.41;70.12;;
75467;Laerm;64050;50.634;3.062;2023-06-26T07:41:12;51.72;47.35;69.07;;
75467;Laerm;64050;50.634;3.062;2023-06-26T07:43:37;54.53;48.46;77.14;;
75467;Laerm;64050;50.634;3.062;2023-06-26T07:46:02;56.01;48.87;71.86;;
75467;Laerm;64050;50.634;3.062;2023-06-26T07:48:27;60.19;50.17;80.46;;
75467;Laerm;64050;50.634;3.062;2023-06-26T07:50:52;54.55;49.72;70.82;;
75467;Laerm;64050;50.634;3.062;2023-06-26T07:53:18;53.70;50.15;64.71;;
75467;Laerm;64050;50.634;3.062;2023-06-26T07:55:43;53.20;50.15;64.95;;
75467;Laerm;64050;50.634;3.062;2023-06-26T07:58:09;53.04;49.23;67.49;;
75467;Laerm;64050;50.634;3.062;2023-06-26T08:00:34;54.39;49.66;74.79;;
75467;Laerm;64050;50.634;3.062;2023-06-26T08:03:00;58.64;50.08;82.79;;
75467;Laerm;64050;50.634;3.062;2023-06-26T08:05:25;53.56;49.07;65.61;;
75467;Laerm;64050;50.634;3.062;2023-06-26T08:07:50;53.46;49.24;66.06;;
75467;Laerm;64050;50.634;3.062;2023-06-26T08:10:15;52.51;46.63;66.65;;
75467;Laerm;64050;50.634;3.062;2023-06-26T08:12:41;52.61;47.67;64.96;;
75467;Laerm;64050;50.634;3.062;2023-06-26T08:15:09;53.40;47.54;68.65;;
75467;Laerm;64050;50.634;3.062;2023-06-26T08:17:35;51.88;47.23;66.04;;
75467;Laerm;64050;50.634;3.062;2023-06-26T08:20:01;51.63;47.02;63.18;;
75467;Laerm;64050;50.634;3.062;2023-06-26T08:22:26;51.41;46.41;63.59;;
75467;Laerm;64050;50.634;3.062;2023-06-26T08:24:51;51.74;47.27;65.59;;
75467;Laerm;64050;50.634;3.062;2023-06-26T08:27:16;52.85;47.57;67.18;;
75467;Laerm;64050;50.634;3.062;2023-06-26T08:29:42;52.16;46.93;67.83;;
75467;Laerm;64050;50.634;3.062;2023-06-26T08:32:07;51.19;46.93;65.67;;
75467;Laerm;64050;50.634;3.062;2023-06-26T08:34:32;54.95;47.30;77.77;;
75467;Laerm;64050;50.634;3.062;2023-06-26T08:36:57;50.68;46.18;63.97;;
75467;Laerm;64050;50.634;3.062;2023-06-26T08:39:23;52.99;47.63;70.42;;
75467;Laerm;64050;50.634;3.062;2023-06-26T08:41:48;52.05;46.62;66.94;;
75467;Laerm;64050;50.634;3.062;2023-06-26T08:44:13;52.53;47.85;61.71;;
75467;Laerm;64050;50.634;3.062;2023-06-26T08:46:38;52.06;46.73;61.44;;
75467;Laerm;64050;50.634;3.062;2023-06-26T08:49:10;51.96;47.58;65.31;;
75467;Laerm;64050;50.634;3.062;2023-06-26T08:51:38;54.29;47.26;80.88;;
75467;Laerm;64050;50.634;3.062;2023-06-26T08:54:05;53.09;47.54;71.68;;
75467;Laerm;64050;50.634;3.062;2023-06-26T08:56:32;51.92;47.17;64.94;;
75467;Laerm;64050;50.634;3.062;2023-06-26T08:59:00;51.92;47.95;61.83;;
75467;Laerm;64050;50.634;3.062;2023-06-26T09:01:26;51.94;47.34;64.59;;
75467;Laerm;64050;50.634;3.062;2023-06-26T09:03:52;52.04;47.52;66.75;;
75467;Laerm;64050;50.634;3.062;2023-06-26T09:06:17;52.25;47.14;70.43;;
75467;Laerm;64050;50.634;3.062;2023-06-26T09:08:43;52.15;47.79;69.59;;
75467;Laerm;64050;50.634;3.062;2023-06-26T09:11:08;53.47;47.52;67.83;;
75467;Laerm;64050;50.634;3.062;2023-06-26T09:13:33;52.66;47.67;67.72;;
75467;Laerm;64050;50.634;3.062;2023-06-26T09:15:59;53.02;48.47;72.17;;
75467;Laerm;64050;50.634;3.062;2023-06-26T09:18:24;57.33;48.42;64.42;;
75467;Laerm;64050;50.634;3.062;2023-06-26T09:20:49;58.28;54.09;62.97;;
75467;Laerm;64050;50.634;3.062;2023-06-26T09:23:15;58.32;55.06;64.69;;
75467;Laerm;64050;50.634;3.062;2023-06-26T09:25:41;58.12;54.59;61.82;;
75467;Laerm;64050;50.634;3.062;2023-06-26T09:28:06;59.06;54.94;76.60;;
75467;Laerm;64050;50.634;3.062;2023-06-26T09:30:32;58.45;54.17;66.13;;
75467;Laerm;64050;50.634;3.062;2023-06-26T09:32:57;58.90;54.35;69.25;;
75467;Laerm;64050;50.634;3.062;2023-06-26T09:35:22;58.82;54.82;71.97;;
75467;Laerm;64050;50.634;3.062;2023-06-26T09:37:48;58.27;54.74;69.02;;
75467;Laerm;64050;50.634;3.062;2023-06-26T09:40:13;58.31;54.74;66.89;;
75467;Laerm;64050;50.634;3.062;2023-06-26T09:42:39;58.52;54.86;73.09;;
75467;Laerm;64050;50.634;3.062;2023-06-26T09:45:04;58.96;54.74;79.76;;
75467;Laerm;64050;50.634;3.062;2023-06-26T09:47:30;58.09;54.60;66.72;;
75467;Laerm;64050;50.634;3.062;2023-06-26T09:49:55;58.32;54.77;72.56;;
75467;Laerm;64050;50.634;3.062;2023-06-26T09:52:20;58.15;54.14;68.16;;
75467;Laerm;64050;50.634;3.062;2023-06-26T09:54:46;58.73;54.68;69.73;;
75467;Laerm;64050;50.634;3.062;2023-06-26T09:57:12;58.44;54.86;69.29;;
75467;Laerm;64050;50.634;3.062;2023-06-26T09:59:38;58.35;54.54;73.51;;
75467;Laerm;64050;50.634;3.062;2023-06-26T10:02:03;57.91;54.29;61.67;;
75467;Laerm;64050;50.634;3.062;2023-06-26T10:04:29;58.15;54.51;63.65;;
75467;Laerm;64050;50.634;3.062;2023-06-26T10:06:56;58.43;54.81;71.53;;
75467;Laerm;64050;50.634;3.062;2023-06-26T10:09:22;57.96;54.96;64.57;;
75467;Laerm;64050;50.634;3.062;2023-06-26T10:11:57;58.22;54.97;68.62;;
75467;Laerm;64050;50.634;3.062;2023-06-26T10:14:25;58.43;54.99;69.90;;
75467;Laerm;64050;50.634;3.062;2023-06-26T10:16:51;58.08;54.70;68.59;;
75467;Laerm;64050;50.634;3.062;2023-06-26T10:19:18;58.16;54.54;68.26;;
75467;Laerm;64050;50.634;3.062;2023-06-26T10:21:48;58.18;54.71;66.99;;
75467;Laerm;64050;50.634;3.062;2023-06-26T10:24:14;58.42;53.63;70.14;;
75467;Laerm;64050;50.634;3.062;2023-06-26T10:26:42;58.31;54.60;65.55;;
75467;Laerm;64050;50.634;3.062;2023-06-26T10:29:09;59.01;54.73;70.87;;
75467;Laerm;64050;50.634;3.062;2023-06-26T10:31:34;58.07;54.84;63.00;;
75467;Laerm;64050;50.634;3.062;2023-06-26T10:34:00;58.47;54.34;65.75;;
75467;Laerm;64050;50.634;3.062;2023-06-26T10:36:30;58.14;54.81;66.73;;
75467;Laerm;64050;50.634;3.062;2023-06-26T10:38:56;58.26;54.93;69.25;;
75467;Laerm;64050;50.634;3.062;2023-06-26T10:41:22;58.51;54.45;73.68;;
75467;Laerm;64050;50.634;3.062;2023-06-26T10:43:49;58.60;54.30;74.65;;
75467;Laerm;64050;50.634;3.062;2023-06-26T10:46:14;60.11;54.89;69.60;;
75467;Laerm;64050;50.634;3.062;2023-06-26T10:48:57;59.43;54.71;71.87;;
75467;Laerm;64050;50.634;3.062;2023-06-26T10:51:23;59.18;54.52;71.21;;
75467;Laerm;64050;50.634;3.062;2023-06-26T10:53:57;58.43;54.82;68.29;;
75467;Laerm;64050;50.634;3.062;2023-06-26T10:56:41;58.10;54.62;62.33;;
75467;Laerm;64050;50.634;3.062;2023-06-26T10:59:11;59.01;54.30;72.22;;
75467;Laerm;64050;50.634;3.062;2023-06-26T11:01:41;58.54;54.39;68.83;;
75467;Laerm;64050;50.634;3.062;2023-06-26T11:04:09;58.18;53.36;69.35;;
75467;Laerm;64050;50.634;3.062;2023-06-26T11:06:36;58.41;54.74;64.48;;
75467;Laerm;64050;50.634;3.062;2023-06-26T11:14:12;58.64;54.95;71.77;;
75467;Laerm;64050;50.634;3.062;2023-06-26T11:16:38;58.52;54.31;69.18;;
75467;Laerm;64050;50.634;3.062;2023-06-26T11:19:03;58.37;54.79;71.10;;
75467;Laerm;64050;50.634;3.062;2023-06-26T11:21:29;58.21;55.27;65.06;;
75467;Laerm;64050;50.634;3.062;2023-06-26T11:23:54;58.72;54.68;74.50;;
75467;Laerm;64050;50.634;3.062;2023-06-26T11:26:23;58.11;54.72;65.37;;
75467;Laerm;64050;50.634;3.062;2023-06-26T11:28:52;58.38;54.66;68.57;;
75467;Laerm;64050;50.634;3.062;2023-06-26T11:31:24;58.52;54.73;67.46;;
75467;Laerm;64050;50.634;3.062;2023-06-26T11:33:49;58.28;54.53;63.53;;
75467;Laerm;64050;50.634;3.062;2023-06-26T11:36:14;58.21;54.14;66.17;;
75467;Laerm;64050;50.634;3.062;2023-06-26T11:38:40;58.08;54.59;64.07;;
75467;Laerm;64050;50.634;3.062;2023-06-26T11:41:05;58.25;54.95;68.31;;
75467;Laerm;64050;50.634;3.062;2023-06-26T11:43:33;58.14;54.85;63.02;;
75467;Laerm;64050;50.634;3.062;2023-06-26T11:45:58;58.89;54.55;79.84;;
75467;Laerm;64050;50.634;3.062;2023-06-26T11:48:24;58.37;54.77;68.06;;
75467;Laerm;64050;50.634;3.062;2023-06-26T11:50:50;58.14;54.39;65.17;;
75467;Laerm;64050;50.634;3.062;2023-06-26T11:53:16;58.53;54.74;67.71;;
75467;Laerm;64050;50.634;3.062;2023-06-26T11:55:41;58.27;55.06;68.43;;
75467;Laerm;64050;50.634;3.062;2023-06-26T11:58:08;58.33;55.08;68.06;;
75467;Laerm;64050;50.634;3.062;2023-06-26T12:00:33;58.83;54.92;70.86;;
75467;Laerm;64050;50.634;3.062;2023-06-26T12:02:58;58.75;54.98;76.05;;
75467;Laerm;64050;50.634;3.062;2023-06-26T12:05:24;58.28;54.86;73.20;;
75467;Laerm;64050;50.634;3.062;2023-06-26T12:07:49;57.87;54.45;63.72;;
75467;Laerm;64050;50.634;3.062;2023-06-26T12:10:14;58.04;54.63;67.14;;
75467;Laerm;64050;50.634;3.062;2023-06-26T12:12:40;58.01;54.28;64.74;;
75467;Laerm;64050;50.634;3.062;2023-06-26T12:15:10;57.99;54.32;65.88;;
75467;Laerm;64050;50.634;3.062;2023-06-26T12:17:39;58.04;54.06;67.54;;
75467;Laerm;64050;50.634;3.062;2023-06-26T12:20:04;58.30;54.48;79.04;;
75467;Laerm;64050;50.634;3.062;2023-06-26T12:22:34;56.25;47.18;68.15;;
75467;Laerm;64050;50.634;3.062;2023-06-26T12:24:59;51.57;47.39;59.83;;
75467;Laerm;64050;50.634;3.062;2023-06-26T12:27:24;51.15;47.34;56.13;;
75467;Laerm;64050;50.634;3.062;2023-06-26T12:29:53;50.56;47.01;58.76;;
75467;Laerm;64050;50.634;3.062;2023-06-26T12:32:19;50.79;47.46;59.01;;
75467;Laerm;64050;50.634;3.062;2023-06-26T12:34:48;53.78;47.12;74.40;;
75467;Laerm;64050;50.634;3.062;2023-06-26T12:37:14;50.98;47.24;61.60;;
75467;Laerm;64050;50.634;3.062;2023-06-26T12:39:49;50.65;47.44;58.52;;
75467;Laerm;64050;50.634;3.062;2023-06-26T12:42:16;51.68;47.10;63.43;;
75467;Laerm;64050;50.634;3.062;2023-06-26T12:44:41;50.95;47.23;67.36;;
75467;Laerm;64050;50.634;3.062;2023-06-26T12:47:07;51.16;47.63;65.38;;
75467;Laerm;64050;50.634;3.062;2023-06-26T12:49:36;51.52;46.72;69.40;;
75467;Laerm;64050;50.634;3.062;2023-06-26T12:52:04;51.49;47.52;65.06;;
75467;Laerm;64050;50.634;3.062;2023-06-26T12:54:29;50.92;47.23;59.79;;
75467;Laerm;64050;50.634;3.062;2023-06-26T12:56:54;51.66;47.25;63.75;;
75467;Laerm;64050;50.634;3.062;2023-06-26T12:59:20;51.46;47.49;64.24;;
75467;Laerm;64050;50.634;3.062;2023-06-26T13:01:45;51.21;47.60;56.42;;
75467;Laerm;64050;50.634;3.062;2023-06-26T13:04:10;51.90;47.74;58.62;;
75467;Laerm;64050;50.634;3.062;2023-06-26T13:06:36;60.08;47.85;77.46;;
75467;Laerm;64050;50.634;3.062;2023-06-26T13:09:01;51.40;47.79;63.80;;
75467;Laerm;64050;50.634;3.062;2023-06-26T13:11:32;51.31;47.73;60.17;;
75467;Laerm;64050;50.634;3.062;2023-06-26T13:13:58;52.19;48.24;69.29;;
75467;Laerm;64050;50.634;3.062;2023-06-26T13:16:23;51.73;48.30;57.70;;
75467;Laerm;64050;50.634;3.062;2023-06-26T13:18:48;51.62;47.35;65.10;;
75467;Laerm;64050;50.634;3.062;2023-06-26T13:21:14;51.43;47.51;69.16;;
75467;Laerm;64050;50.634;3.062;2023-06-26T13:23:39;52.39;47.57;67.56;;
75467;Laerm;64050;50.634;3.062;2023-06-26T13:26:05;53.04;50.12;67.27;;
75467;Laerm;64050;50.634;3.062;2023-06-26T13:28:30;52.14;46.79;61.91;;
75467;Laerm;64050;50.634;3.062;2023-06-26T13:30:55;50.84;47.16;59.74;;
75467;Laerm;64050;50.634;3.062;2023-06-26T13:33:20;50.96;46.77;63.88;;
75467;Laerm;64050;50.634;3.062;2023-06-26T13:35:46;50.54;46.87;57.50;;
75467;Laerm;64050;50.634;3.062;2023-06-26T13:38:11;50.61;46.78;63.63;;
75467;Laerm;64050;50.634;3.062;2023-06-26T13:40:36;50.25;46.83;55.53;;
75467;Laerm;64050;50.634;3.062;2023-06-26T13:43:02;50.80;47.11;58.54;;
75467;Laerm;64050;50.634;3.062;2023-06-26T13:45:28;51.17;47.66;59.43;;
75467;Laerm;64050;50.634;3.062;2023-06-26T13:47:53;50.68;46.84;57.76;;
75467;Laerm;64050;50.634;3.062;2023-06-26T13:50:19;51.60;46.92;73.27;;
75467;Laerm;64050;50.634;3.062;2023-06-26T13:52:44;50.63;47.61;56.81;;